sensor_id;sensor_type;location;lat;lon;timestamp;P1;durP1;ratioP1;P2;durP2;ratioP2
14872;SDS011;7528;48.576;19.122;2023-04-28T00:02:57;10.80;;;8.93;;
14872;SDS011;7528;48.576;19.122;2023-04-28T00:08:00;14.17;;;8.70;;
14872;SDS011;7528;48.576;19.122;2023-04-28T00:13:04;11.43;;;8.57;;
14872;SDS011;7528;48.576;19.122;2023-04-28T00:18:06;9.00;;;7.10;;
14872;SDS011;7528;48.576;19.122;2023-04-28T00:23:09;9.83;;;7.23;;
14872;SDS011;7528;48.576;19.122;2023-04-28T00:28:13;9.10;;;7.20;;
14872;SDS011;7528;48.576;19.122;2023-04-28T00:33:15;8.27;;;7.37;;
14872;SDS011;7528;48.576;19.122;2023-04-28T00:38:17;10.07;;;7.17;;
14872;SDS011;7528;48.576;19.122;2023-04-28T00:43:21;8.63;;;6.80;;
14872;SDS011;7528;48.576;19.122;2023-04-28T00:48:24;8.93;;;6.80;;
14872;SDS011;7528;48.576;19.122;2023-04-28T00:53:27;7.77;;;6.70;;
14872;SDS011;7528;48.576;19.122;2023-04-28T00:58:31;9.70;;;7.43;;
14872;SDS011;7528;48.576;19.122;2023-04-28T01:03:35;10.27;;;7.23;;
14872;SDS011;7528;48.576;19.122;2023-04-28T01:08:38;8.00;;;7.20;;
14872;SDS011;7528;48.576;19.122;2023-04-28T01:13:49;8.77;;;7.20;;
14872;SDS011;7528;48.576;19.122;2023-04-28T01:18:53;7.63;;;6.63;;
14872;SDS011;7528;48.576;19.122;2023-04-28T01:23:58;10.23;;;8.20;;
14872;SDS011;7528;48.576;19.122;2023-04-28T01:29:02;25.50;;;17.73;;
14872;SDS011;7528;48.576;19.122;2023-04-28T01:34:04;15.93;;;11.10;;
14872;SDS011;7528;48.576;19.122;2023-04-28T01:39:08;10.83;;;8.07;;
14872;SDS011;7528;48.576;19.122;2023-04-28T01:44:13;8.57;;;7.60;;
14872;SDS011;7528;48.576;19.122;2023-04-28T01:49:16;18.27;;;12.10;;
14872;SDS011;7528;48.576;19.122;2023-04-28T01:54:20;21.03;;;17.03;;
14872;SDS011;7528;48.576;19.122;2023-04-28T01:59:23;18.23;;;12.87;;
14872;SDS011;7528;48.576;19.122;2023-04-28T02:04:25;8.60;;;7.43;;
14872;SDS011;7528;48.576;19.122;2023-04-28T02:09:29;13.93;;;9.60;;
14872;SDS011;7528;48.576;19.122;2023-04-28T02:14:32;12.70;;;9.97;;
14872;SDS011;7528;48.576;19.122;2023-04-28T02:19:34;11.67;;;8.33;;
14872;SDS011;7528;48.576;19.122;2023-04-28T02:24:41;9.87;;;8.47;;
14872;SDS011;7528;48.576;19.122;2023-04-28T02:29:43;8.23;;;7.40;;
14872;SDS011;7528;48.576;19.122;2023-04-28T02:34:46;8.97;;;7.40;;
14872;SDS011;7528;48.576;19.122;2023-04-28T02:39:54;9.67;;;7.77;;
14872;SDS011;7528;48.576;19.122;2023-04-28T02:44:58;8.87;;;7.40;;
14872;SDS011;7528;48.576;19.122;2023-04-28T02:50:00;7.67;;;6.53;;
14872;SDS011;7528;48.576;19.122;2023-04-28T02:55:06;7.53;;;6.30;;
14872;SDS011;7528;48.576;19.122;2023-04-28T03:00:09;7.90;;;6.80;;
14872;SDS011;7528;48.576;19.122;2023-04-28T03:05:19;15.40;;;8.00;;
14872;SDS011;7528;48.576;19.122;2023-04-28T03:10:23;8.23;;;7.33;;
14872;SDS011;7528;48.576;19.122;2023-04-28T03:15:25;9.53;;;7.97;;
14872;SDS011;7528;48.576;19.122;2023-04-28T03:20:28;11.93;;;8.40;;
14872;SDS011;7528;48.576;19.122;2023-04-28T03:25:32;10.13;;;8.20;;
14872;SDS011;7528;48.576;19.122;2023-04-28T03:30:34;8.03;;;7.23;;
14872;SDS011;7528;48.576;19.122;2023-04-28T03:35:37;11.97;;;7.10;;
14872;SDS011;7528;48.576;19.122;2023-04-28T03:40:41;8.30;;;7.30;;
14872;SDS011;7528;48.576;19.122;2023-04-28T03:46:06;11.60;;;9.87;;
14872;SDS011;7528;48.576;19.122;2023-04-28T03:51:08;9.90;;;8.20;;
14872;SDS011;7528;48.576;19.122;2023-04-28T03:56:12;8.77;;;7.70;;
14872;SDS011;7528;48.576;19.122;2023-04-28T04:01:15;11.20;;;8.53;;
14872;SDS011;7528;48.576;19.122;2023-04-28T04:06:17;10.37;;;8.87;;
14872;SDS011;7528;48.576;19.122;2023-04-28T04:11:22;10.37;;;8.57;;
14872;SDS011;7528;48.576;19.122;2023-04-28T04:16:25;13.73;;;10.03;;
14872;SDS011;7528;48.576;19.122;2023-04-28T04:21:30;12.87;;;8.83;;
14872;SDS011;7528;48.576;19.122;2023-04-28T04:26:34;8.97;;;7.53;;
14872;SDS011;7528;48.576;19.122;2023-04-28T04:31:49;9.47;;;7.43;;
14872;SDS011;7528;48.576;19.122;2023-04-28T04:36:51;12.23;;;8.07;;
14872;SDS011;7528;48.576;19.122;2023-04-28T04:41:55;11.70;;;7.33;;
14872;SDS011;7528;48.576;19.122;2023-04-28T04:47:10;9.93;;;8.03;;
14872;SDS011;7528;48.576;19.122;2023-04-28T04:52:13;10.60;;;8.80;;
14872;SDS011;7528;48.576;19.122;2023-04-28T04:57:17;10.87;;;8.37;;
14872;SDS011;7528;48.576;19.122;2023-04-28T05:02:34;10.53;;;8.57;;
14872;SDS011;7528;48.576;19.122;2023-04-28T05:07:38;10.73;;;8.23;;
14872;SDS011;7528;48.576;19.122;2023-04-28T05:12:43;9.50;;;8.60;;
14872;SDS011;7528;48.576;19.122;2023-04-28T05:17:46;8.77;;;7.57;;
14872;SDS011;7528;48.576;19.122;2023-04-28T05:22:49;11.03;;;8.27;;
14872;SDS011;7528;48.576;19.122;2023-04-28T05:27:53;11.47;;;9.60;;
14872;SDS011;7528;48.576;19.122;2023-04-28T05:32:56;13.63;;;9.77;;
14872;SDS011;7528;48.576;19.122;2023-04-28T05:37:58;13.20;;;10.83;;
14872;SDS011;7528;48.576;19.122;2023-04-28T05:43:02;14.40;;;11.83;;
14872;SDS011;7528;48.576;19.122;2023-04-28T05:48:05;15.47;;;11.43;;
14872;SDS011;7528;48.576;19.122;2023-04-28T05:53:08;13.87;;;10.93;;
14872;SDS011;7528;48.576;19.122;2023-04-28T05:58:12;12.33;;;10.00;;
14872;SDS011;7528;48.576;19.122;2023-04-28T06:03:15;12.90;;;10.47;;
14872;SDS011;7528;48.576;19.122;2023-04-28T06:08:19;13.70;;;9.67;;
14872;SDS011;7528;48.576;19.122;2023-04-28T06:13:23;12.50;;;9.63;;
14872;SDS011;7528;48.576;19.122;2023-04-28T06:18:26;11.70;;;8.93;;
14872;SDS011;7528;48.576;19.122;2023-04-28T06:23:34;14.13;;;9.57;;
14872;SDS011;7528;48.576;19.122;2023-04-28T06:28:39;9.30;;;8.27;;
14872;SDS011;7528;48.576;19.122;2023-04-28T06:33:42;11.60;;;8.20;;
14872;SDS011;7528;48.576;19.122;2023-04-28T06:38:45;10.23;;;7.90;;
14872;SDS011;7528;48.576;19.122;2023-04-28T06:43:49;8.63;;;7.73;;
14872;SDS011;7528;48.576;19.122;2023-04-28T06:48:57;11.87;;;7.13;;
14872;SDS011;7528;48.576;19.122;2023-04-28T06:54:00;8.87;;;7.20;;
14872;SDS011;7528;48.576;19.122;2023-04-28T06:59:04;8.20;;;7.03;;
14872;SDS011;7528;48.576;19.122;2023-04-28T07:10:42;8.20;;;6.93;;
14872;SDS011;7528;48.576;19.122;2023-04-28T07:15:46;8.63;;;6.57;;
14872;SDS011;7528;48.576;19.122;2023-04-28T07:20:49;8.10;;;6.10;;
14872;SDS011;7528;48.576;19.122;2023-04-28T07:25:52;8.30;;;6.27;;
14872;SDS011;7528;48.576;19.122;2023-04-28T07:30:56;6.83;;;5.70;;
14872;SDS011;7528;48.576;19.122;2023-04-28T07:35:58;6.97;;;5.30;;
14872;SDS011;7528;48.576;19.122;2023-04-28T07:41:01;6.23;;;5.47;;
14872;SDS011;7528;48.576;19.122;2023-04-28T07:46:06;8.23;;;5.77;;
14872;SDS011;7528;48.576;19.122;2023-04-28T07:51:09;5.77;;;5.10;;
14872;SDS011;7528;48.576;19.122;2023-04-28T07:56:11;5.40;;;4.87;;
14872;SDS011;7528;48.576;19.122;2023-04-28T08:01:15;6.90;;;4.60;;
14872;SDS011;7528;48.576;19.122;2023-04-28T08:06:18;5.80;;;4.50;;
14872;SDS011;7528;48.576;19.122;2023-04-28T08:11:21;5.00;;;4.50;;
14872;SDS011;7528;48.576;19.122;2023-04-28T08:16:25;5.20;;;4.05;;
14872;SDS011;7528;48.576;19.122;2023-04-28T08:21:28;3.60;;;3.20;;
14872;SDS011;7528;48.576;19.122;2023-04-28T08:26:32;5.82;;;4.22;;
14872;SDS011;7528;48.576;19.122;2023-04-28T08:31:36;5.85;;;4.13;;
14872;SDS011;7528;48.576;19.122;2023-04-28T08:36:39;5.63;;;3.90;;
14872;SDS011;7528;48.576;19.122;2023-04-28T08:41:41;7.53;;;3.60;;
14872;SDS011;7528;48.576;19.122;2023-04-28T08:46:46;5.60;;;3.72;;
14872;SDS011;7528;48.576;19.122;2023-04-28T08:51:55;5.47;;;3.70;;
14872;SDS011;7528;48.576;19.122;2023-04-28T08:57:00;4.68;;;3.65;;
14872;SDS011;7528;48.576;19.122;2023-04-28T09:02:05;4.65;;;3.83;;
14872;SDS011;7528;48.576;19.122;2023-04-28T09:07:12;5.28;;;3.80;;
14872;SDS011;7528;48.576;19.122;2023-04-28T09:12:15;5.78;;;4.25;;
14872;SDS011;7528;48.576;19.122;2023-04-28T09:17:21;5.82;;;4.15;;
14872;SDS011;7528;48.576;19.122;2023-04-28T09:22:25;4.65;;;4.10;;
14872;SDS011;7528;48.576;19.122;2023-04-28T09:27:29;4.18;;;3.78;;
14872;SDS011;7528;48.576;19.122;2023-04-28T09:32:33;4.88;;;3.78;;
14872;SDS011;7528;48.576;19.122;2023-04-28T09:37:36;12.75;;;11.57;;
14872;SDS011;7528;48.576;19.122;2023-04-28T09:42:39;5.18;;;4.50;;
14872;SDS011;7528;48.576;19.122;2023-04-28T09:47:44;4.88;;;4.18;;
14872;SDS011;7528;48.576;19.122;2023-04-28T09:52:54;5.40;;;4.00;;
14872;SDS011;7528;48.576;19.122;2023-04-28T09:57:58;4.68;;;3.20;;
14872;SDS011;7528;48.576;19.122;2023-04-28T10:03:07;4.50;;;3.42;;
14872;SDS011;7528;48.576;19.122;2023-04-28T10:08:10;3.50;;;3.20;;
14872;SDS011;7528;48.576;19.122;2023-04-28T10:13:14;3.15;;;2.85;;
14872;SDS011;7528;48.576;19.122;2023-04-28T10:18:20;4.70;;;3.47;;
14872;SDS011;7528;48.576;19.122;2023-04-28T10:23:36;3.53;;;2.97;;
14872;SDS011;7528;48.576;19.122;2023-04-28T10:28:55;4.45;;;3.10;;
14872;SDS011;7528;48.576;19.122;2023-04-28T10:34:00;3.53;;;2.63;;
14872;SDS011;7528;48.576;19.122;2023-04-28T10:39:23;5.28;;;2.90;;
14872;SDS011;7528;48.576;19.122;2023-04-28T10:44:41;3.75;;;3.08;;
14872;SDS011;7528;48.576;19.122;2023-04-28T11:00:37;4.05;;;2.70;;
14872;SDS011;7528;48.576;19.122;2023-04-28T11:05:45;4.45;;;2.92;;
14872;SDS011;7528;48.576;19.122;2023-04-28T11:11:22;5.45;;;2.92;;
14872;SDS011;7528;48.576;19.122;2023-04-28T11:16:26;4.10;;;2.83;;
14872;SDS011;7528;48.576;19.122;2023-04-28T11:21:30;4.15;;;2.85;;
14872;SDS011;7528;48.576;19.122;2023-04-28T11:26:35;4.10;;;2.88;;
14872;SDS011;7528;48.576;19.122;2023-04-28T11:31:38;4.15;;;2.90;;
14872;SDS011;7528;48.576;19.122;2023-04-28T11:36:43;3.80;;;2.90;;
14872;SDS011;7528;48.576;19.122;2023-04-28T11:41:46;5.88;;;3.40;;
14872;SDS011;7528;48.576;19.122;2023-04-28T11:46:49;4.45;;;3.13;;
14872;SDS011;7528;48.576;19.122;2023-04-28T11:52:02;4.25;;;2.65;;
14872;SDS011;7528;48.576;19.122;2023-04-28T11:57:15;3.65;;;2.70;;
14872;SDS011;7528;48.576;19.122;2023-04-28T12:02:25;4.30;;;2.88;;
14872;SDS011;7528;48.576;19.122;2023-04-28T12:07:38;7.97;;;5.90;;
14872;SDS011;7528;48.576;19.122;2023-04-28T12:12:42;4.93;;;3.10;;
14872;SDS011;7528;48.576;19.122;2023-04-28T12:17:46;5.85;;;3.85;;
14872;SDS011;7528;48.576;19.122;2023-04-28T12:22:51;5.35;;;2.72;;
14872;SDS011;7528;48.576;19.122;2023-04-28T12:27:57;6.20;;;4.10;;
14872;SDS011;7528;48.576;19.122;2023-04-28T12:33:01;5.70;;;2.78;;
14872;SDS011;7528;48.576;19.122;2023-04-28T12:38:06;4.22;;;2.70;;
14872;SDS011;7528;48.576;19.122;2023-04-28T12:43:13;4.72;;;3.83;;
14872;SDS011;7528;48.576;19.122;2023-04-28T12:48:15;3.83;;;2.92;;
14872;SDS011;7528;48.576;19.122;2023-04-28T12:53:20;4.07;;;2.60;;
14872;SDS011;7528;48.576;19.122;2023-04-28T12:58:22;5.45;;;3.28;;
14872;SDS011;7528;48.576;19.122;2023-04-28T13:03:25;4.03;;;2.97;;
14872;SDS011;7528;48.576;19.122;2023-04-28T13:08:29;5.75;;;2.72;;
14872;SDS011;7528;48.576;19.122;2023-04-28T13:13:33;4.03;;;2.92;;
14872;SDS011;7528;48.576;19.122;2023-04-28T13:18:36;4.05;;;2.72;;
14872;SDS011;7528;48.576;19.122;2023-04-28T13:23:40;4.65;;;3.05;;
14872;SDS011;7528;48.576;19.122;2023-04-28T13:28:43;5.32;;;3.10;;
14872;SDS011;7528;48.576;19.122;2023-04-28T13:33:46;4.00;;;2.90;;
14872;SDS011;7528;48.576;19.122;2023-04-28T13:38:51;5.55;;;2.65;;
14872;SDS011;7528;48.576;19.122;2023-04-28T13:43:54;3.50;;;2.95;;
14872;SDS011;7528;48.576;19.122;2023-04-28T13:48:56;6.70;;;3.17;;
14872;SDS011;7528;48.576;19.122;2023-04-28T13:54:00;3.90;;;2.63;;
14872;SDS011;7528;48.576;19.122;2023-04-28T13:59:03;7.38;;;3.38;;
14872;SDS011;7528;48.576;19.122;2023-04-28T14:04:06;13.57;;;6.88;;
14872;SDS011;7528;48.576;19.122;2023-04-28T14:09:10;26.23;;;11.35;;
14872;SDS011;7528;48.576;19.122;2023-04-28T14:14:13;6.70;;;3.30;;
14872;SDS011;7528;48.576;19.122;2023-04-28T14:19:15;10.70;;;5.57;;
14872;SDS011;7528;48.576;19.122;2023-04-28T14:24:19;5.50;;;3.95;;
14872;SDS011;7528;48.576;19.122;2023-04-28T14:29:22;5.50;;;3.88;;
14872;SDS011;7528;48.576;19.122;2023-04-28T14:34:25;6.65;;;3.40;;
14872;SDS011;7528;48.576;19.122;2023-04-28T14:39:29;5.07;;;3.35;;
14872;SDS011;7528;48.576;19.122;2023-04-28T14:44:33;3.72;;;2.85;;
14872;SDS011;7528;48.576;19.122;2023-04-28T14:49:35;4.32;;;2.72;;
14872;SDS011;7528;48.576;19.122;2023-04-28T14:54:40;5.85;;;3.60;;
14872;SDS011;7528;48.576;19.122;2023-04-28T14:59:42;4.68;;;3.05;;
14872;SDS011;7528;48.576;19.122;2023-04-28T15:04:45;5.50;;;3.80;;
14872;SDS011;7528;48.576;19.122;2023-04-28T15:09:50;5.45;;;3.53;;
14872;SDS011;7528;48.576;19.122;2023-04-28T15:14:52;3.22;;;2.92;;
14872;SDS011;7528;48.576;19.122;2023-04-28T15:19:55;4.25;;;3.20;;
14872;SDS011;7528;48.576;19.122;2023-04-28T15:24:59;4.93;;;3.47;;
14872;SDS011;7528;48.576;19.122;2023-04-28T15:30:02;3.95;;;2.92;;
14872;SDS011;7528;48.576;19.122;2023-04-28T15:35:05;5.40;;;3.38;;
14872;SDS011;7528;48.576;19.122;2023-04-28T15:40:11;5.63;;;3.40;;
14872;SDS011;7528;48.576;19.122;2023-04-28T15:45:15;5.40;;;4.30;;
